Station: Moomba Airport

  Atmospheric Gas Attenuation - ITU Rec 676-11   --------------- db/100km ---------------
Date Time Temp RH % AH g/m3 Dew Point Wind Direction Speed kph Gust kph Barometer mB Rainfall Since 9am 24GHz 47GHz 76GHz 122GHz 134GHz 241GHz
15 00:00 12.4 75 8.2 8.1 13 17 1017.6 0 18.8 25.8 39.1 102.4 95.2 327.0
14 23:50 12.3 76 8.25 8.2 13 15 1017.8 0 18.9 25.9 39.3 103.1 96.0 329.8
14 23:40 12.5 75 8.25 8.2 13 15 1017.7 0 18.9 25.9 39.2 102.9 95.7 329.0
14 23:30 12.8 74 8.29 8.3 15 17 1017.7 0 19.0 25.8 39.2 102.9 95.9 329.6
14 23:20 12.9 74 8.34 8.4 13 15 1017.8 0 19.1 25.9 39.4 103.3 96.5 331.5
14 23:10 13.2 73 8.38 8.5 17 19 1017.8 0 19.1 25.9 39.4 103.4 96.6 332.1
14 23:00 13.4 73 8.49 8.7 17 19 1017.8 0 19.4 26.0 39.8 104.3 97.8 336.4
14 22:50 13.2 75 8.61 8.9 17 17 1018 0 19.6 26.3 40.4 105.9 99.7 342.9
14 22:40 13.2 75 8.61 8.9 15 17 1017.8 0 19.6 26.3 40.3 105.8 99.7 342.8
14 22:30 13.4 75 8.72 9.1 17 19 1017.9 0 19.9 26.4 40.7 106.8 100.9 347.1
14 22:20 13.3 77 8.9 9.4 15 17 1017.8 0 20.3 26.7 41.5 108.9 103.4 356.0
14 22:10 13 78 8.85 9.3 15 17 1017.9 0 20.2 26.7 41.4 108.7 103.2 355.0
14 22:00 13.3 76 8.78 9.2 15 20 1017.7 0 20.0 26.5 41.0 107.5 101.8 350.3
14 21:50 14 73 8.81 9.2 19 20 1017.8 0 20.0 26.3 40.7 106.9 101.3 348.6
14 21:40 14.6 71 8.88 9.4 15 15 1017.5 0 20.1 26.3 40.7 106.8 101.4 349.1
14 21:30 15.1 69 8.9 9.5 17 19 1017.3 0 20.2 26.2 40.5 106.3 101.0 347.8
14 21:20 15.4 68 8.93 9.5 15 17 1017.5 0 20.2 26.1 40.5 106.3 101.0 347.9
14 21:10 15.5 67 8.86 9.4 17 19 1017.3 0 20.1 26.0 40.2 105.4 100.0 344.2
14 21:00 14.6 72 9.01 9.6 17 17 1017.3 0 20.4 26.5 41.2 108.2 103.1 355.1
14 20:50 14.6 72 9.01 9.6 7 9 1017.5 0 20.4 26.5 41.2 108.2 103.1 355.2
14 20:40 14.3 73 8.97 9.5 17 17 1017.3 0 20.4 26.5 41.2 108.2 103.0 354.6
14 20:30 14.6 72 9.01 9.6 11 15 1017.4 0 20.4 26.5 41.2 108.2 103.1 355.1
14 20:20 14.8 71 8.99 9.6 15 15 1017.4 0 20.4 26.4 41.0 107.7 102.6 353.3
14 20:10 15.2 71 9.22 10 17 17 1017.4 0 20.8 26.6 41.8 109.7 105.1 362.2
14 20:00 14.1 74 8.98 9.5 13 17 1017.3 0 20.4 26.6 41.4 108.6 103.4 356.0
14 19:50 14.7 73 9.19 9.9 13 13 1017.4 0 20.8 26.7 41.9 110.0 105.4 363.1
14 19:40 14.7 73 9.19 9.9 11 13 1017.2 0 20.8 26.7 41.9 110.0 105.4 363.0
14 19:30 15.2 72 9.35 10.2 11 13 1017 0 21.1 26.8 42.3 111.0 106.8 368.1
14 19:20 14.7 72 9.07 9.7 13 13 1017.1 0 20.5 26.5 41.4 108.7 103.8 357.4
14 19:10 15.1 70 9.03 9.7 13 13 1017 0 20.4 26.3 41.0 107.7 102.7 353.7
14 19:00 15.2 70 9.09 9.8 11 11 1016.9 0 20.6 26.4 41.2 108.2 103.4 356.0
14 18:50 15.7 68 9.1 9.8 11 11 1017 0 20.6 26.3 41.0 107.6 102.8 354.2
14 18:40 15.6 68 9.04 9.7 11 11 1016.9 0 20.4 26.2 40.8 107.1 102.2 351.9
14 18:30 15.7 67 8.96 9.6 11 13 1016.6 0 20.3 26.0 40.4 106.1 101.0 347.7
14 18:20 16.1 66 9.05 9.8 9 9 1016.6 0 20.4 26.1 40.6 106.5 101.6 350.0
14 18:10 16.4 65 9.07 9.8 9 9 1016.6 0 20.5 26.0 40.5 106.3 101.5 349.6
14 18:00 16.7 64 9.09 9.9 7 9 1016.4 0 20.5 26.0 40.4 106.1 101.3 349.1
14 17:50 16.9 62 8.92 9.6 7 9 1016.6 0 20.1 25.6 39.7 104.1 98.9 340.7
14 17:40 17.4 60 8.89 9.6 6 6 1016.5 0 20.0 25.4 39.3 103.1 97.9 337.2
14 17:30 18.8 55 8.86 9.6 6 7 1016.4 0 19.9 25.0 38.5 101.0 95.8 329.9
14 17:20 19 53 8.64 9.2 7 7 1016.4 0 19.4 24.6 37.6 98.5 92.8 319.6
14 17:10 20.1 50 8.69 9.4 9 9 1016.2 0 19.5 24.4 37.2 97.7 92.1 317.3
14 17:00 20.5 48 8.54 9.1 9 13 1016 0 19.1 24.0 36.5 95.7 89.8 309.3
14 16:50 21 46 8.43 8.9 9 11 1016 0 18.9 23.8 35.9 94.1 88.0 302.8
14 16:40 21.2 45 8.34 8.8 11 13 1016 0 18.7 23.6 35.5 93.0 86.7 298.3
14 16:30 21.4 44 8.25 8.7 11 15 1015.8 0 18.5 23.4 35.1 91.8 85.4 293.8
14 16:20 21.4 44 8.25 8.7 11 13 1016 0 18.5 23.4 35.1 91.9 85.4 293.8
14 16:10 21.5 44 8.3 8.7 11 13 1016.2 0 18.6 23.4 35.2 92.2 85.9 295.6
14 16:00 21.6 44 8.34 8.8 15 20 1016 0 18.7 23.5 35.3 92.5 86.2 296.8
14 15:50 21.6 43 8.15 8.5 17 20 1016.1 0 18.3 23.2 34.6 90.7 84.0 289.0
14 15:40 21.5 43 8.11 8.4 15 19 1016 0 18.2 23.2 34.5 90.4 83.6 287.7
14 15:30 21.6 42 7.97 8.1 17 22 1015.9 0 17.9 22.9 34.0 89.0 81.9 281.6
14 15:20 21.3 43 8.01 8.2 17 19 1016.1 0 18.0 23.1 34.3 89.7 82.7 284.3
14 15:10 21.6 42 7.97 8.1 15 17 1016.2 0 17.9 22.9 34.0 89.0 81.9 281.7
14 15:00 21.7 41 7.82 7.9 17 24 1016.1 0 17.6 22.7 33.4 87.5 80.1 275.2
14 14:50 21.6 42 7.97 8.1 17 20 1016.1 0 17.9 22.9 34.0 89.0 81.9 281.7
14 14:40 22 42 8.15 8.5 13 15 1016.3 0 18.3 23.1 34.5 90.3 83.6 287.6
14 14:30 21.7 43 8.2 8.6 13 17 1016.2 0 18.4 23.2 34.8 91.1 84.5 290.7
14 14:20 21.4 43 8.06 8.3 11 13 1016.4 0 18.1 23.1 34.4 90.1 83.2 286.1
14 14:10 21.2 44 8.15 8.5 6 7 1016.2 0 18.3 23.3 34.8 91.1 84.4 290.5
14 14:00 20.7 43 7.74 7.7 9 15 1016.4 0 17.5 22.8 33.6 87.8 80.2 275.4
14 13:50 20.7 44 7.92 8 9 11 1016.5 0 17.8 23.1 34.2 89.5 82.3 282.8
14 13:40 20.6 44 7.87 7.9 7 7 1016.7 0 17.7 23.1 34.1 89.2 81.8 281.2
14 13:30 21.1 43 7.92 8 9 17 1016.6 0 17.8 23.0 34.0 89.1 81.9 281.5
14 13:20 20.9 44 8.01 8.2 13 15 1016.8 0 18.0 23.2 34.4 90.2 83.1 285.9
14 13:10 20.6 44 7.87 7.9 11 15 1016.9 0 17.7 23.1 34.1 89.2 81.8 281.2
14 13:00 20.9 44 8.01 8.2 11 19 1017 0 18.0 23.2 34.5 90.2 83.2 286.0
14 12:50 20.7 44 7.92 8 11 13 1017.2 0 17.8 23.1 34.2 89.6 82.3 283.0
14 12:40 20.6 45 8.05 8.3 7 9 1017.4 0 18.1 23.3 34.7 91.0 84.0 288.8
14 12:30 20.4 45 7.96 8.1 7 13 1017.4 0 17.9 23.3 34.5 90.3 83.1 285.7
14 12:20 20.1 46 8 8.1 7 7 1018 0 18.0 23.4 34.8 91.1 84.0 288.6
14 12:10 20.4 45 7.96 8.1 7 9 1018.1 0 17.9 23.3 34.5 90.4 83.2 285.9
14 12:00 19.9 46 7.9 7.9 9 17 1018.3 0 17.8 23.3 34.5 90.4 83.0 285.2
14 11:50 19.7 45 7.64 7.4 11 15 1018.7 0 17.3 23.0 33.7 88.2 80.1 275.2
14 11:40 19.8 45 7.69 7.5 17 20 1018.8 0 17.4 23.1 33.8 88.5 80.6 277.0
14 11:30 19.6 45 7.6 7.4 13 20 1018.7 0 17.2 23.0 33.6 87.9 79.8 273.9
14 11:20 19.3 45 7.46 7.1 19 20 1018.3 0 16.9 22.8 33.2 86.8 78.4 269.0
14 11:10 19.5 47 7.89 7.9 17 19 1018.5 0 17.8 23.4 34.7 90.8 83.3 286.3
14 11:00 19.2 47 7.75 7.6 13 19 1018.7 0 17.5 23.3 34.3 89.8 82.0 281.5
14 10:50 18.8 48 7.73 7.6 11 13 1019.2 0 17.5 23.4 34.4 90.1 82.2 282.2
14 10:40 18.6 49 7.8 7.7 11 13 1019.2 0 17.7 23.6 34.8 91.0 83.2 285.8
14 10:30 18.2 50 7.77 7.6 19 24 1018.8 0 17.6 23.6 34.8 91.1 83.2 285.9
14 10:20 17.9 52 7.94 7.9 17 20 1018.9 0 18.0 23.9 35.6 93.1 85.6 294.2
14 10:10 17.2 53 7.76 7.5 20 24 1018.8 0 17.6 23.8 35.2 92.1 84.2 289.0
14 10:00 17 53 7.67 7.4 22 26 1018.5 0 17.5 23.8 34.9 91.4 83.3 285.8
14 09:50 16.7 56 7.96 7.9 20 22 1018.9 0 18.1 24.3 36.2 94.7 87.2 299.6
14 09:40 16.1 57 7.81 7.6 24 28 1018.8 0 17.8 24.2 35.9 93.9 86.0 295.2
14 09:30 15.5 61 8.06 8 22 24 1018.9 0 18.4 24.8 37.1 97.2 89.8 308.5
14 09:20 15 65 8.33 8.5 20 20 1019 0 19.0 25.3 38.4 100.6 93.9 322.7
14 09:10 14.4 65 8.04 7.9 20 22 1018.9 0 18.4 25.0 37.5 98.3 90.8 311.9
14 09:00 14.4 67 8.28 8.4 15 20 1018.9 0 18.9 25.4 38.5 100.9 93.9 322.8
14 08:50 14 70 8.44 8.6 19 20 1018.8 0 19.2 25.8 39.3 103.1 96.5 331.8
14 08:40 13.2 72 8.27 8.3 15 17 1018.8 0 18.9 25.7 39.0 102.3 95.2 327.3
14 08:30 12.9 76 8.57 8.8 15 19 1018.6 0 19.6 26.3 40.4 105.9 99.6 342.5
14 08:20 12.3 81 8.8 9.1 13 13 1018.8 0 20.1 26.9 41.6 109.3 103.5 356.1
14 08:10 11.2 86 8.72 8.9 11 11 1018.9 0 20.0 27.1 41.9 109.9 103.9 357.3
14 08:00 10.6 88 8.59 8.7 11 13 1018.9 0 19.7 27.0 41.7 109.3 102.9 353.8
14 07:50 10.5 88 8.54 8.6 11 13 1019 0 19.6 27.0 41.5 108.9 102.4 351.8
14 07:40 10.4 88 8.48 8.5 6 7 1019.4 0 19.5 26.9 41.3 108.4 101.7 349.5
14 07:30 10.2 88 8.38 8.3 2 6 1019.3 0 19.3 26.8 41.0 107.6 100.6 345.5

Last Refresh: 15-Jun-2024 00:08:05

Bureau of Meteorology